createdAt,value
2023-08-02T00:00:43.088Z,14.18
2023-08-02T00:03:29.354Z,14.38
2023-08-02T00:06:15.974Z,14.53
2023-08-02T00:09:02.414Z,14.34
2023-08-02T00:11:52.346Z,14.16
2023-08-02T00:14:38.951Z,14.08
2023-08-02T00:17:25.461Z,14.25
2023-08-02T00:20:12.449Z,14.25
2023-08-02T00:22:59.093Z,14.31
2023-08-02T00:25:45.639Z,14.22
2023-08-02T00:28:32.379Z,14.18
2023-08-02T00:31:18.711Z,14.07
2023-08-02T00:34:05.241Z,13.92
2023-08-02T00:36:51.721Z,14.05
2023-08-02T00:39:39.306Z,14.02
2023-08-02T00:42:26.591Z,13.76
2023-08-02T00:45:12.792Z,13.69
2023-08-02T00:47:59.974Z,13.88
2023-08-02T00:50:46.477Z,13.65
2023-08-02T00:53:32.942Z,13.60
2023-08-02T00:56:19.293Z,13.77
2023-08-02T00:59:05.822Z,13.66
2023-08-02T01:01:52.111Z,13.64
2023-08-02T01:04:39.174Z,13.68
2023-08-02T01:07:41.421Z,13.55
2023-08-02T01:10:40.477Z,13.50
2023-08-02T01:13:28.383Z,13.57
2023-08-02T01:16:16.467Z,13.50
2023-08-02T01:19:09.247Z,13.39
2023-08-02T01:21:55.374Z,13.47
2023-08-02T01:24:42.939Z,13.42
2023-08-02T01:27:37.717Z,13.41
2023-08-02T01:30:30.647Z,13.39
2023-08-02T01:33:18.290Z,13.20
2023-08-02T01:36:05.355Z,13.34
2023-08-02T01:38:54.994Z,13.36
2023-08-02T01:41:41.309Z,13.17
2023-08-02T01:44:27.686Z,13.39
2023-08-02T01:47:16.098Z,13.38
2023-08-02T01:50:02.346Z,13.29
2023-08-02T01:52:50.339Z,13.26
2023-08-02T01:55:36.686Z,13.26
2023-08-02T01:58:24.860Z,13.39
2023-08-02T02:01:11.079Z,13.31
2023-08-02T02:03:57.487Z,13.29
2023-08-02T02:06:44.390Z,13.09
2023-08-02T02:09:30.937Z,13.27
2023-08-02T02:12:17.530Z,13.08
2023-08-02T02:15:03.991Z,13.25
2023-08-02T02:17:50.246Z,13.28
2023-08-02T02:20:36.615Z,13.32
2023-08-02T02:23:23.072Z,13.35
2023-08-02T02:26:09.802Z,13.27
2023-08-02T02:28:56.370Z,13.41
2023-08-02T02:31:43.394Z,13.46
2023-08-02T02:34:29.659Z,13.38
2023-08-02T02:37:16.246Z,13.49
2023-08-02T02:40:02.882Z,13.65
2023-08-02T02:42:49.110Z,13.80
2023-08-02T02:45:35.715Z,14.14
2023-08-02T02:48:21.998Z,14.20
2023-08-02T02:51:08.463Z,14.52
2023-08-02T02:53:55.083Z,14.68
2023-08-02T02:56:41.864Z,14.86
2023-08-02T02:59:28.413Z,14.85
2023-08-02T03:02:15.081Z,14.88
2023-08-02T03:05:01.293Z,15.45
2023-08-02T03:07:47.801Z,15.29
2023-08-02T03:10:34.247Z,15.62
2023-08-02T03:13:20.624Z,15.54
2023-08-02T03:16:07.111Z,15.74
2023-08-02T03:18:55.895Z,15.75
2023-08-02T03:21:44.578Z,15.85
2023-08-02T03:24:31.039Z,15.85
2023-08-02T03:27:17.449Z,15.87
2023-08-02T03:30:04.507Z,15.78
2023-08-02T03:32:50.983Z,15.74
2023-08-02T03:35:37.588Z,15.86
2023-08-02T03:38:24.042Z,15.97
2023-08-02T03:41:10.638Z,15.87
2023-08-02T03:43:56.921Z,16.00
2023-08-02T03:46:43.626Z,15.66
2023-08-02T03:49:30.084Z,16.03
2023-08-02T03:52:16.657Z,16.14
2023-08-02T03:55:02.864Z,16.14
2023-08-02T03:57:48.942Z,16.01
2023-08-02T04:00:35.582Z,16.00
2023-08-02T04:03:22.132Z,15.68
2023-08-02T04:06:08.478Z,15.94
2023-08-02T04:08:54.802Z,15.74
2023-08-02T04:11:41.409Z,15.85
2023-08-02T04:14:27.875Z,15.87
2023-08-02T04:17:14.413Z,15.88
2023-08-02T04:20:02.386Z,15.97
2023-08-02T04:22:50.768Z,15.90
2023-08-02T04:25:37.001Z,15.86
2023-08-02T04:28:23.677Z,15.90
2023-08-02T04:31:09.943Z,15.82
2023-08-02T04:33:57.249Z,15.95
2023-08-02T04:36:43.627Z,15.74
2023-08-02T04:39:30.250Z,15.57
2023-08-02T04:42:17.692Z,15.34
2023-08-02T04:45:04.656Z,15.58
2023-08-02T04:47:51.248Z,15.55
2023-08-02T04:50:38.627Z,15.49
2023-08-02T04:53:24.925Z,15.47
2023-08-02T04:56:11.362Z,15.42
2023-08-02T04:58:58.151Z,15.24
2023-08-02T05:01:44.695Z,15.40
2023-08-02T05:04:31.654Z,15.03
2023-08-02T05:07:17.922Z,15.21
2023-08-02T05:10:07.841Z,15.13
2023-08-02T05:12:54.656Z,14.94
2023-08-02T05:15:40.934Z,14.98
2023-08-02T05:18:27.545Z,14.92
2023-08-02T05:21:15.596Z,15.00
2023-08-02T05:24:02.202Z,15.01
2023-08-02T05:26:49.350Z,14.99
2023-08-02T05:29:35.852Z,15.12
2023-08-02T05:32:22.255Z,15.19
2023-08-02T05:35:09.011Z,14.91
2023-08-02T05:37:55.414Z,15.11
2023-08-02T05:40:41.622Z,14.89
2023-08-02T05:43:28.310Z,14.84
2023-08-02T05:46:14.532Z,14.90
2023-08-02T05:49:01.334Z,14.81
2023-08-02T05:51:47.728Z,14.96
2023-08-02T05:54:34.206Z,14.91
2023-08-02T05:57:20.655Z,15.06
2023-08-02T06:00:08.341Z,15.03
2023-08-02T06:02:54.687Z,14.99
2023-08-02T06:05:40.988Z,14.98
2023-08-02T06:08:27.599Z,14.93
2023-08-02T06:11:14.104Z,15.12
2023-08-02T06:14:00.428Z,14.97
2023-08-02T06:16:46.629Z,15.07
2023-08-02T06:19:32.966Z,14.97
2023-08-02T06:22:19.534Z,15.15
2023-08-02T06:25:06.755Z,15.18
2023-08-02T06:27:53.085Z,15.22
2023-08-02T06:30:39.452Z,15.30
2023-08-02T06:33:26.039Z,15.29
2023-08-02T06:36:12.663Z,14.82
2023-08-02T06:38:58.817Z,15.36
2023-08-02T06:41:45.473Z,15.38
2023-08-02T06:44:33.250Z,15.46
2023-08-02T06:47:19.490Z,15.52
2023-08-02T06:50:06.509Z,15.61
2023-08-02T06:52:53.022Z,15.78
2023-08-02T06:55:39.274Z,15.88
2023-08-02T06:58:25.849Z,15.89
2023-08-02T07:01:22.825Z,16.05
2023-08-02T07:04:09.424Z,16.15
2023-08-02T07:06:55.533Z,16.12
2023-08-02T07:09:42.092Z,15.92
2023-08-02T07:12:29.333Z,16.01
2023-08-02T07:15:15.779Z,16.18
2023-08-02T07:18:02.254Z,16.29
2023-08-02T07:20:48.717Z,16.36
2023-08-02T07:23:36.075Z,16.60
2023-08-02T07:26:23.795Z,16.91
2023-08-02T07:29:10.302Z,16.65
2023-08-02T07:31:56.740Z,16.84
2023-08-02T07:34:43.301Z,17.03
2023-08-02T07:37:29.890Z,16.79
2023-08-02T07:40:16.569Z,16.97
2023-08-02T07:43:02.789Z,17.08
2023-08-02T07:45:49.192Z,17.09
2023-08-02T07:48:35.392Z,17.08
2023-08-02T07:51:22.056Z,17.19
2023-08-02T07:54:08.744Z,17.09
2023-08-02T07:56:55.114Z,17.31
2023-08-02T07:59:41.559Z,17.25
2023-08-02T08:02:28.619Z,17.38
2023-08-02T08:05:15.163Z,17.29
2023-08-02T08:08:01.473Z,17.30
2023-08-02T08:10:52.480Z,17.43
2023-08-02T08:13:39.130Z,17.27
2023-08-02T08:16:25.412Z,17.66
2023-08-02T08:19:11.948Z,17.47
2023-08-02T08:21:58.742Z,17.49
2023-08-02T08:24:45.224Z,17.52
2023-08-02T08:27:31.642Z,17.68
2023-08-02T08:30:18.164Z,17.48
2023-08-02T08:33:04.452Z,17.76
2023-08-02T08:35:50.733Z,17.95
2023-08-02T08:38:37.171Z,17.76
2023-08-02T08:41:23.790Z,17.74
2023-08-02T08:44:10.253Z,17.66
2023-08-02T08:47:00.369Z,17.79
2023-08-02T08:49:48.114Z,17.71
2023-08-02T08:52:36.902Z,17.65
2023-08-02T08:55:28.058Z,17.52
2023-08-02T08:58:15.003Z,17.49
2023-08-02T09:01:04.749Z,17.45
2023-08-02T09:03:51.116Z,17.38
2023-08-02T09:06:37.789Z,17.38
2023-08-02T09:09:24.402Z,17.37
2023-08-02T09:12:10.749Z,17.45
2023-08-02T09:15:08.465Z,17.49
2023-08-02T09:17:55.958Z,17.47
2023-08-02T09:20:53.201Z,17.49
2023-08-02T09:23:39.886Z,17.72
2023-08-02T09:26:26.459Z,17.88
2023-08-02T09:29:13.766Z,17.90
2023-08-02T09:32:00.758Z,17.88
2023-08-02T09:34:59.696Z,18.21
2023-08-02T09:37:46.128Z,18.38
2023-08-02T09:40:49.401Z,18.32
2023-08-02T09:43:45.451Z,18.47
2023-08-02T09:46:37.212Z,18.40
2023-08-02T09:49:24.574Z,18.43
2023-08-02T09:52:11.507Z,18.57
2023-08-02T09:54:58.101Z,18.52
2023-08-02T09:57:47.711Z,18.70
2023-08-02T10:00:34.155Z,18.86
2023-08-02T10:03:25.922Z,18.78
2023-08-02T10:06:13.608Z,19.18
2023-08-02T10:09:06.605Z,19.45
2023-08-02T10:12:07.673Z,19.87
2023-08-02T10:14:57.726Z,20.26
2023-08-02T10:17:44.816Z,20.30
2023-08-02T10:20:31.195Z,20.27
2023-08-02T10:23:17.395Z,20.52
2023-08-02T10:26:04.006Z,20.79
2023-08-02T10:28:50.610Z,20.85
2023-08-02T10:31:37.202Z,20.88
2023-08-02T10:34:35.586Z,20.85
2023-08-02T10:37:22.036Z,20.30
2023-08-02T10:40:08.381Z,20.54
2023-08-02T10:43:06.285Z,20.28
2023-08-02T10:46:18.413Z,20.37
2023-08-02T10:49:10.745Z,20.21
2023-08-02T10:51:58.110Z,20.13
2023-08-02T10:55:03.910Z,19.99
2023-08-02T10:57:56.301Z,19.96
2023-08-02T11:00:43.078Z,19.88
2023-08-02T11:03:30.349Z,19.83
2023-08-02T11:06:27.816Z,20.10
2023-08-02T11:09:14.320Z,20.03
2023-08-02T11:12:14.968Z,20.07
2023-08-02T11:15:01.689Z,19.93
2023-08-02T11:17:54.887Z,20.14
2023-08-02T11:20:41.663Z,19.84
2023-08-02T11:23:28.005Z,20.13
2023-08-02T11:26:16.422Z,20.00
2023-08-02T11:29:08.956Z,20.13
2023-08-02T11:31:55.791Z,20.10
2023-08-02T11:34:43.923Z,19.76
2023-08-02T11:37:30.132Z,19.87
2023-08-02T11:43:08.209Z,20.01
2023-08-02T11:45:54.947Z,20.00
2023-08-02T11:48:42.036Z,19.90
2023-08-02T11:51:28.361Z,19.98
2023-08-02T11:54:15.432Z,20.06
2023-08-02T11:57:05.010Z,19.75
2023-08-02T11:59:53.553Z,19.97
2023-08-02T12:02:39.960Z,19.97
2023-08-02T12:05:26.935Z,20.15
2023-08-02T12:08:14.186Z,20.29
2023-08-02T12:11:00.452Z,20.26
2023-08-02T12:13:46.892Z,20.35
2023-08-02T12:16:44.363Z,20.39
2023-08-02T12:19:39.194Z,20.38
2023-08-02T12:22:25.761Z,20.44
2023-08-02T12:25:12.101Z,20.62
2023-08-02T12:28:04.901Z,20.65
2023-08-02T12:31:02.076Z,20.66
2023-08-02T12:33:49.598Z,20.83
2023-08-02T12:36:36.239Z,20.66
2023-08-02T12:39:23.633Z,21.12
2023-08-02T12:42:10.322Z,21.09
2023-08-02T12:45:02.014Z,21.20
2023-08-02T12:47:58.719Z,21.34
2023-08-02T12:50:45.571Z,21.14
2023-08-02T12:53:32.435Z,20.59
2023-08-02T12:56:19.136Z,21.33
2023-08-02T12:59:05.510Z,21.62
2023-08-02T13:01:51.992Z,21.78
2023-08-02T13:04:39.319Z,21.83
2023-08-02T13:07:35.819Z,21.80
2023-08-02T13:10:29.594Z,21.84
2023-08-02T13:13:15.745Z,21.75
2023-08-02T13:16:02.161Z,21.86
2023-08-02T13:18:48.769Z,21.95
2023-08-02T13:21:35.426Z,22.12
2023-08-02T13:24:21.850Z,22.18
2023-08-02T13:27:08.184Z,22.04
2023-08-02T13:29:54.491Z,21.76
2023-08-02T13:32:41.103Z,21.89
2023-08-02T13:35:27.521Z,21.70
2023-08-02T13:38:14.254Z,21.85
2023-08-02T13:41:01.668Z,21.84
2023-08-02T13:43:47.927Z,22.01
2023-08-02T13:46:34.415Z,21.97
2023-08-02T13:49:21.029Z,22.19
2023-08-02T13:52:07.634Z,22.55
2023-08-02T13:54:53.918Z,22.61
2023-08-02T13:57:40.443Z,23.03
2023-08-02T14:00:26.753Z,23.54
2023-08-02T14:03:13.089Z,24.00
2023-08-02T14:05:59.869Z,23.82
2023-08-02T14:08:46.295Z,23.41
2023-08-02T14:11:32.470Z,23.25
2023-08-02T14:14:19.007Z,22.84
2023-08-02T14:17:05.969Z,22.55
2023-08-02T14:19:52.537Z,22.48
2023-08-02T14:22:38.800Z,22.39
2023-08-02T14:25:25.257Z,22.09
2023-08-02T14:28:11.476Z,22.32
2023-08-02T14:31:00.857Z,22.15
2023-08-02T14:33:47.630Z,21.85
2023-08-02T14:36:34.271Z,22.01
2023-08-02T14:39:20.973Z,22.00
2023-08-02T14:42:07.454Z,21.86
2023-08-02T14:44:53.516Z,21.53
2023-08-02T14:47:40.119Z,21.69
2023-08-02T14:50:27.790Z,21.70
2023-08-02T14:53:14.053Z,21.55
2023-08-02T14:56:00.601Z,21.46
2023-08-02T14:58:47.018Z,21.35
2023-08-02T15:01:33.499Z,21.54
2023-08-02T15:04:21.086Z,21.80
2023-08-02T15:07:07.384Z,22.10
2023-08-02T15:09:53.647Z,21.85
2023-08-02T15:12:40.213Z,22.41
2023-08-02T15:15:26.603Z,22.85
2023-08-02T15:18:13.253Z,23.23
2023-08-02T15:21:02.114Z,23.26
2023-08-02T15:23:51.801Z,23.44
2023-08-02T15:26:38.798Z,23.35
2023-08-02T15:29:26.311Z,23.33
2023-08-02T15:32:12.858Z,23.57
2023-08-02T15:34:59.345Z,23.59
2023-08-02T15:37:48.688Z,23.96
2023-08-02T15:40:35.199Z,24.18
2023-08-02T15:43:21.995Z,24.41
2023-08-02T15:46:08.274Z,24.39
2023-08-02T15:48:54.941Z,24.42
2023-08-02T15:51:42.408Z,24.42
2023-08-02T15:54:29.925Z,24.51
2023-08-02T15:57:16.232Z,24.58
2023-08-02T16:00:02.990Z,24.55
2023-08-02T16:02:58.042Z,24.68
2023-08-02T16:05:44.259Z,24.61
2023-08-02T16:08:31.051Z,24.92
2023-08-02T16:11:17.445Z,24.91
2023-08-02T16:14:03.878Z,24.91
2023-08-02T16:16:50.123Z,24.72
2023-08-02T16:19:38.593Z,24.49
2023-08-02T16:22:25.042Z,24.38
2023-08-02T16:25:11.245Z,24.45
2023-08-02T16:27:57.655Z,24.38
2023-08-02T16:30:44.256Z,24.65
2023-08-02T16:33:30.684Z,24.50
2023-08-02T16:36:17.045Z,24.30
2023-08-02T16:39:03.658Z,23.79
2023-08-02T16:41:50.040Z,24.18
2023-08-02T16:44:36.243Z,23.84
2023-08-02T16:47:22.798Z,23.90
2023-08-02T16:50:13.914Z,23.55
2023-08-02T16:53:00.488Z,22.87
2023-08-02T16:55:47.183Z,22.47
2023-08-02T16:58:33.825Z,22.15
2023-08-02T17:01:20.144Z,21.55
2023-08-02T17:04:07.162Z,21.34
2023-08-02T17:06:53.606Z,21.06
2023-08-02T17:09:40.877Z,21.13
2023-08-02T17:12:27.444Z,21.19
2023-08-02T17:15:14.048Z,21.02
2023-08-02T17:18:00.445Z,21.35
2023-08-02T17:20:46.885Z,21.14
2023-08-02T17:23:33.246Z,21.39
2023-08-02T17:26:19.950Z,21.48
2023-08-02T17:29:06.513Z,21.42
2023-08-02T17:31:52.979Z,21.84
2023-08-02T17:34:39.390Z,21.76
2023-08-02T17:37:26.060Z,21.86
2023-08-02T17:40:12.561Z,21.89
2023-08-02T17:42:59.459Z,21.69
2023-08-02T17:45:46.104Z,21.45
2023-08-02T17:48:32.519Z,21.42
2023-08-02T17:51:19.229Z,21.43
2023-08-02T17:54:05.716Z,21.38
2023-08-02T17:56:51.991Z,21.58
2023-08-02T17:59:38.545Z,21.29
2023-08-02T18:02:24.996Z,21.69
2023-08-02T18:05:11.259Z,21.67
2023-08-02T18:07:57.672Z,21.77
2023-08-02T18:10:44.186Z,21.97
2023-08-02T18:13:31.438Z,21.84
2023-08-02T18:16:18.117Z,21.73
2023-08-02T18:19:04.702Z,21.67
2023-08-02T18:21:53.237Z,21.58
2023-08-02T18:24:42.826Z,21.27
2023-08-02T18:27:30.018Z,21.17
2023-08-02T18:30:16.701Z,21.04
2023-08-02T18:33:02.867Z,20.83
2023-08-02T18:35:49.590Z,20.84
2023-08-02T18:38:37.084Z,20.46
2023-08-02T18:41:24.635Z,20.34
2023-08-02T18:44:10.927Z,20.45
2023-08-02T18:46:57.403Z,20.44
2023-08-02T18:49:43.901Z,20.10
2023-08-02T18:52:35.947Z,20.16
2023-08-02T18:55:22.653Z,20.27
2023-08-02T18:58:09.566Z,20.08
2023-08-02T19:00:55.777Z,19.59
2023-08-02T19:03:42.971Z,19.90
2023-08-02T19:06:29.320Z,19.78
2023-08-02T19:09:15.682Z,19.35
2023-08-02T19:12:03.674Z,19.55
2023-08-02T19:14:50.443Z,19.70
2023-08-02T19:17:40.334Z,19.72
2023-08-02T19:20:27.695Z,19.49
2023-08-02T19:23:18.098Z,19.57
2023-08-02T19:26:04.453Z,19.34
2023-08-02T19:28:52.257Z,19.06
2023-08-02T19:31:38.792Z,19.19
2023-08-02T19:34:33.775Z,19.13
2023-08-02T19:37:27.387Z,19.02
2023-08-02T19:40:13.851Z,19.06
2023-08-02T19:43:00.137Z,19.18
2023-08-02T19:45:46.797Z,19.09
2023-08-02T19:48:37.418Z,19.26
2023-08-02T19:51:23.701Z,19.11
2023-08-02T19:54:11.870Z,19.21
2023-08-02T19:57:00.888Z,19.32
2023-08-02T19:59:47.111Z,19.42
2023-08-02T20:02:33.750Z,19.31
2023-08-02T20:06:00.579Z,19.55
2023-08-02T20:08:47.493Z,19.44
2023-08-02T20:11:34.028Z,19.50
2023-08-02T20:14:21.798Z,19.57
2023-08-02T20:17:14.778Z,19.69
2023-08-02T20:20:01.280Z,19.87
2023-08-02T20:22:47.657Z,19.84
2023-08-02T20:25:34.157Z,19.87
2023-08-02T20:28:20.930Z,19.84
2023-08-02T20:31:23.526Z,19.74
2023-08-02T20:34:11.787Z,19.76
2023-08-02T20:37:00.905Z,19.66
2023-08-02T20:39:47.381Z,19.51
2023-08-02T20:42:33.962Z,19.23
2023-08-02T20:45:20.940Z,19.03
2023-08-02T20:48:11.305Z,19.23
2023-08-02T20:50:57.829Z,19.06
2023-08-02T20:53:44.371Z,18.71
2023-08-02T20:56:30.672Z,18.54
2023-08-02T20:59:18.544Z,18.63
2023-08-02T21:02:21.538Z,18.47
2023-08-02T21:05:08.683Z,18.27
2023-08-02T21:07:57.249Z,17.98
2023-08-02T21:10:44.056Z,18.09
2023-08-02T21:13:30.306Z,17.78
2023-08-02T21:16:16.505Z,17.66
2023-08-02T21:19:03.173Z,17.23
2023-08-02T21:21:55.159Z,17.39
2023-08-02T21:24:41.372Z,17.22
2023-08-02T21:27:28.562Z,16.98
2023-08-02T21:30:15.921Z,17.27
2023-08-02T21:33:03.621Z,17.06
2023-08-02T21:35:55.824Z,17.13
2023-08-02T21:38:43.486Z,16.99
2023-08-02T21:41:31.384Z,17.21
2023-08-02T21:44:19.165Z,17.38
2023-08-02T21:47:06.396Z,17.60
2023-08-02T21:49:53.320Z,17.71
2023-08-02T21:52:40.361Z,17.63
2023-08-02T21:55:27.066Z,17.86
2023-08-02T21:58:17.628Z,17.70
2023-08-02T22:01:04.251Z,17.97
2023-08-02T22:03:51.079Z,17.96
2023-08-02T22:06:37.703Z,17.67
2023-08-02T22:09:24.055Z,18.04
2023-08-02T22:12:11.446Z,18.03
2023-08-02T22:15:04.481Z,18.42
2023-08-02T22:17:54.242Z,18.48
2023-08-02T22:20:41.485Z,18.63
2023-08-02T22:23:27.968Z,18.46
2023-08-02T22:26:14.272Z,18.62
2023-08-02T22:29:00.806Z,18.42
2023-08-02T22:31:47.394Z,18.46
2023-08-02T22:34:33.657Z,18.70
2023-08-02T22:37:20.169Z,18.59
2023-08-02T22:40:08.486Z,18.61
2023-08-02T22:42:56.435Z,18.52
2023-08-02T22:45:42.969Z,18.66
2023-08-02T22:49:45.005Z,18.70
2023-08-02T22:51:35.646Z,18.61
2023-08-02T22:54:22.150Z,18.72
2023-08-02T22:57:32.536Z,18.74
2023-08-02T23:00:26.056Z,18.56
2023-08-02T23:03:39.073Z,18.76
2023-08-02T23:06:29.200Z,18.82
2023-08-02T23:09:15.586Z,18.75
2023-08-02T23:12:02.230Z,18.47
2023-08-02T23:14:56.439Z,18.71
2023-08-02T23:17:42.756Z,18.65
2023-08-02T23:20:39.943Z,18.58
2023-08-02T23:23:27.018Z,18.70
2023-08-02T23:26:14.462Z,18.54
2023-08-02T23:29:01.187Z,18.45
2023-08-02T23:31:49.564Z,18.56
2023-08-02T23:34:36.023Z,18.69
2023-08-02T23:37:22.441Z,18.59
2023-08-02T23:40:09.608Z,18.39
2023-08-02T23:42:55.842Z,18.48
2023-08-02T23:45:43.684Z,18.56
2023-08-02T23:48:30.493Z,18.45
2023-08-02T23:51:17.678Z,18.38
2023-08-02T23:54:06.174Z,18.31
2023-08-02T23:56:52.819Z,18.42
2023-08-02T23:59:39.231Z,18.52
